sensor_id;sensor_type;location;lat;lon;timestamp;P1;durP1;ratioP1;P2;durP2;ratioP2
6438;SDS011;3252;52.540;13.290;2024-03-06T00:00:57;6.90;;;6.20;;
6438;SDS011;3252;52.540;13.290;2024-03-06T00:03:00;7.83;;;6.97;;
6438;SDS011;3252;52.540;13.290;2024-03-06T00:05:03;8.60;;;6.57;;
6438;SDS011;3252;52.540;13.290;2024-03-06T00:07:08;7.67;;;6.53;;
6438;SDS011;3252;52.540;13.290;2024-03-06T00:09:10;8.73;;;6.63;;
6438;SDS011;3252;52.540;13.290;2024-03-06T00:11:12;6.80;;;6.20;;
6438;SDS011;3252;52.540;13.290;2024-03-06T00:13:15;7.37;;;6.63;;
6438;SDS011;3252;52.540;13.290;2024-03-06T00:15:19;7.10;;;6.40;;
6438;SDS011;3252;52.540;13.290;2024-03-06T00:17:22;7.40;;;6.70;;
6438;SDS011;3252;52.540;13.290;2024-03-06T00:19:23;7.57;;;6.80;;
6438;SDS011;3252;52.540;13.290;2024-03-06T00:21:25;6.70;;;6.03;;
6438;SDS011;3252;52.540;13.290;2024-03-06T00:23:29;6.90;;;6.20;;
6438;SDS011;3252;52.540;13.290;2024-03-06T00:25:31;7.03;;;6.33;;
6438;SDS011;3252;52.540;13.290;2024-03-06T00:27:34;6.90;;;6.30;;
6438;SDS011;3252;52.540;13.290;2024-03-06T00:29:37;6.83;;;6.13;;
6438;SDS011;3252;52.540;13.290;2024-03-06T00:31:43;7.50;;;6.50;;
6438;SDS011;3252;52.540;13.290;2024-03-06T00:33:46;6.83;;;6.13;;
6438;SDS011;3252;52.540;13.290;2024-03-06T00:35:48;7.03;;;6.33;;
6438;SDS011;3252;52.540;13.290;2024-03-06T00:37:51;6.90;;;6.20;;
6438;SDS011;3252;52.540;13.290;2024-03-06T00:39:54;6.93;;;6.33;;
6438;SDS011;3252;52.540;13.290;2024-03-06T00:41:56;6.67;;;6.07;;
6438;SDS011;3252;52.540;13.290;2024-03-06T00:43:59;6.93;;;6.30;;
6438;SDS011;3252;52.540;13.290;2024-03-06T00:46:02;6.80;;;6.13;;
6438;SDS011;3252;52.540;13.290;2024-03-06T00:48:06;7.00;;;6.30;;
6438;SDS011;3252;52.540;13.290;2024-03-06T00:50:09;6.10;;;5.50;;
6438;SDS011;3252;52.540;13.290;2024-03-06T00:52:11;7.53;;;5.60;;
6438;SDS011;3252;52.540;13.290;2024-03-06T00:54:13;6.33;;;5.73;;
6438;SDS011;3252;52.540;13.290;2024-03-06T00:56:16;7.03;;;5.87;;
6438;SDS011;3252;52.540;13.290;2024-03-06T00:58:18;6.23;;;5.57;;
6438;SDS011;3252;52.540;13.290;2024-03-06T01:00:21;6.87;;;6.17;;
6438;SDS011;3252;52.540;13.290;2024-03-06T01:02:23;6.40;;;5.80;;
6438;SDS011;3252;52.540;13.290;2024-03-06T01:04:27;6.90;;;6.20;;
6438;SDS011;3252;52.540;13.290;2024-03-06T01:06:30;6.97;;;6.27;;
6438;SDS011;3252;52.540;13.290;2024-03-06T01:08:32;6.10;;;5.50;;
6438;SDS011;3252;52.540;13.290;2024-03-06T01:10:34;6.33;;;5.60;;
6438;SDS011;3252;52.540;13.290;2024-03-06T01:12:37;6.77;;;6.13;;
6438;SDS011;3252;52.540;13.290;2024-03-06T01:14:38;6.00;;;5.30;;
6438;SDS011;3252;52.540;13.290;2024-03-06T01:16:41;6.20;;;5.60;;
6438;SDS011;3252;52.540;13.290;2024-03-06T01:18:43;6.60;;;5.90;;
6438;SDS011;3252;52.540;13.290;2024-03-06T01:20:47;6.00;;;5.50;;
6438;SDS011;3252;52.540;13.290;2024-03-06T01:22:49;6.40;;;5.80;;
6438;SDS011;3252;52.540;13.290;2024-03-06T01:24:52;6.20;;;5.60;;
6438;SDS011;3252;52.540;13.290;2024-03-06T01:26:54;5.63;;;5.13;;
6438;SDS011;3252;52.540;13.290;2024-03-06T01:28:57;5.43;;;4.83;;
6438;SDS011;3252;52.540;13.290;2024-03-06T01:30:59;6.10;;;5.50;;
6438;SDS011;3252;52.540;13.290;2024-03-06T01:33:02;5.77;;;5.27;;
6438;SDS011;3252;52.540;13.290;2024-03-06T01:35:05;6.60;;;6.00;;
6438;SDS011;3252;52.540;13.290;2024-03-06T01:37:09;5.97;;;5.37;;
6438;SDS011;3252;52.540;13.290;2024-03-06T01:39:11;5.70;;;5.20;;
6438;SDS011;3252;52.540;13.290;2024-03-06T01:41:13;5.77;;;5.27;;
6438;SDS011;3252;52.540;13.290;2024-03-06T01:43:17;5.80;;;5.30;;
6438;SDS011;3252;52.540;13.290;2024-03-06T01:45:20;6.17;;;5.47;;
6438;SDS011;3252;52.540;13.290;2024-03-06T01:47:22;6.03;;;5.43;;
6438;SDS011;3252;52.540;13.290;2024-03-06T01:49:25;6.13;;;5.47;;
6438;SDS011;3252;52.540;13.290;2024-03-06T01:51:28;6.00;;;5.50;;
6438;SDS011;3252;52.540;13.290;2024-03-06T01:53:32;6.10;;;5.50;;
6438;SDS011;3252;52.540;13.290;2024-03-06T01:55:35;6.03;;;5.40;;
6438;SDS011;3252;52.540;13.290;2024-03-06T01:57:37;5.63;;;5.13;;
6438;SDS011;3252;52.540;13.290;2024-03-06T01:59:40;5.73;;;5.20;;
6438;SDS011;3252;52.540;13.290;2024-03-06T02:01:42;5.83;;;5.23;;
6438;SDS011;3252;52.540;13.290;2024-03-06T02:03:45;5.37;;;4.87;;
6438;SDS011;3252;52.540;13.290;2024-03-06T02:05:48;6.00;;;5.40;;
6438;SDS011;3252;52.540;13.290;2024-03-06T02:07:49;5.20;;;4.70;;
6438;SDS011;3252;52.540;13.290;2024-03-06T02:09:54;5.90;;;5.40;;
6438;SDS011;3252;52.540;13.290;2024-03-06T02:11:57;6.10;;;5.57;;
6438;SDS011;3252;52.540;13.290;2024-03-06T02:14:00;5.70;;;5.20;;
6438;SDS011;3252;52.540;13.290;2024-03-06T02:16:03;5.47;;;4.97;;
6438;SDS011;3252;52.540;13.290;2024-03-06T02:18:06;5.63;;;5.13;;
6438;SDS011;3252;52.540;13.290;2024-03-06T02:20:09;5.63;;;5.13;;
6438;SDS011;3252;52.540;13.290;2024-03-06T02:22:13;5.70;;;5.17;;
6438;SDS011;3252;52.540;13.290;2024-03-06T02:24:16;5.50;;;5.00;;
6438;SDS011;3252;52.540;13.290;2024-03-06T02:26:19;5.23;;;4.73;;
6438;SDS011;3252;52.540;13.290;2024-03-06T02:28:21;5.67;;;5.17;;
6438;SDS011;3252;52.540;13.290;2024-03-06T02:30:24;5.70;;;5.20;;
6438;SDS011;3252;52.540;13.290;2024-03-06T02:32:26;5.37;;;4.87;;
6438;SDS011;3252;52.540;13.290;2024-03-06T02:34:28;5.50;;;5.00;;
6438;SDS011;3252;52.540;13.290;2024-03-06T02:36:31;4.90;;;4.50;;
6438;SDS011;3252;52.540;13.290;2024-03-06T02:38:34;5.73;;;5.20;;
6438;SDS011;3252;52.540;13.290;2024-03-06T02:40:36;5.70;;;5.10;;
6438;SDS011;3252;52.540;13.290;2024-03-06T02:42:39;6.10;;;5.50;;
6438;SDS011;3252;52.540;13.290;2024-03-06T02:44:42;6.03;;;5.43;;
6438;SDS011;3252;52.540;13.290;2024-03-06T02:46:46;6.00;;;5.40;;
6438;SDS011;3252;52.540;13.290;2024-03-06T02:48:49;6.83;;;6.10;;
6438;SDS011;3252;52.540;13.290;2024-03-06T02:50:52;5.27;;;4.77;;
6438;SDS011;3252;52.540;13.290;2024-03-06T02:52:54;5.37;;;4.87;;
6438;SDS011;3252;52.540;13.290;2024-03-06T02:54:58;5.80;;;5.20;;
6438;SDS011;3252;52.540;13.290;2024-03-06T02:57:00;5.43;;;4.93;;
6438;SDS011;3252;52.540;13.290;2024-03-06T02:59:03;6.37;;;5.37;;
6438;SDS011;3252;52.540;13.290;2024-03-06T03:01:04;5.50;;;5.00;;
6438;SDS011;3252;52.540;13.290;2024-03-06T03:03:09;5.33;;;4.83;;
6438;SDS011;3252;52.540;13.290;2024-03-06T03:05:12;5.43;;;4.93;;
6438;SDS011;3252;52.540;13.290;2024-03-06T03:07:15;5.63;;;5.13;;
6438;SDS011;3252;52.540;13.290;2024-03-06T03:09:17;5.50;;;5.00;;
6438;SDS011;3252;52.540;13.290;2024-03-06T03:11:22;5.20;;;4.80;;
6438;SDS011;3252;52.540;13.290;2024-03-06T03:13:24;5.73;;;5.23;;
6438;SDS011;3252;52.540;13.290;2024-03-06T03:15:26;5.03;;;4.63;;
6438;SDS011;3252;52.540;13.290;2024-03-06T03:17:28;6.23;;;5.00;;
6438;SDS011;3252;52.540;13.290;2024-03-06T03:19:31;5.70;;;5.20;;
6438;SDS011;3252;52.540;13.290;2024-03-06T03:21:33;6.00;;;5.23;;
6438;SDS011;3252;52.540;13.290;2024-03-06T03:23:35;5.70;;;5.20;;
6438;SDS011;3252;52.540;13.290;2024-03-06T03:25:38;5.13;;;4.67;;
6438;SDS011;3252;52.540;13.290;2024-03-06T03:27:42;5.33;;;4.83;;
6438;SDS011;3252;52.540;13.290;2024-03-06T03:29:45;5.23;;;4.80;;
6438;SDS011;3252;52.540;13.290;2024-03-06T03:31:46;5.37;;;4.87;;
6438;SDS011;3252;52.540;13.290;2024-03-06T03:33:48;5.03;;;4.60;;
6438;SDS011;3252;52.540;13.290;2024-03-06T03:35:51;5.73;;;5.20;;
6438;SDS011;3252;52.540;13.290;2024-03-06T03:37:53;5.63;;;5.03;;
6438;SDS011;3252;52.540;13.290;2024-03-06T03:39:57;5.50;;;4.90;;
6438;SDS011;3252;52.540;13.290;2024-03-06T03:41:59;5.53;;;4.93;;
6438;SDS011;3252;52.540;13.290;2024-03-06T03:44:02;5.03;;;4.53;;
6438;SDS011;3252;52.540;13.290;2024-03-06T03:46:05;5.70;;;5.17;;
6438;SDS011;3252;52.540;13.290;2024-03-06T03:48:08;5.00;;;4.60;;
6438;SDS011;3252;52.540;13.290;2024-03-06T03:50:10;5.73;;;4.93;;
6438;SDS011;3252;52.540;13.290;2024-03-06T03:52:13;5.97;;;5.37;;
6438;SDS011;3252;52.540;13.290;2024-03-06T03:54:15;5.73;;;5.13;;
6438;SDS011;3252;52.540;13.290;2024-03-06T03:56:18;5.10;;;4.70;;
6438;SDS011;3252;52.540;13.290;2024-03-06T03:58:20;5.60;;;5.10;;
6438;SDS011;3252;52.540;13.290;2024-03-06T04:00:24;5.40;;;4.90;;
6438;SDS011;3252;52.540;13.290;2024-03-06T04:02:27;5.20;;;4.70;;
6438;SDS011;3252;52.540;13.290;2024-03-06T04:04:29;5.57;;;5.07;;
6438;SDS011;3252;52.540;13.290;2024-03-06T04:06:34;5.40;;;4.90;;
6438;SDS011;3252;52.540;13.290;2024-03-06T04:08:36;6.43;;;5.00;;
6438;SDS011;3252;52.540;13.290;2024-03-06T04:10:39;5.20;;;4.70;;
6438;SDS011;3252;52.540;13.290;2024-03-06T04:12:41;5.43;;;4.93;;
6438;SDS011;3252;52.540;13.290;2024-03-06T04:14:44;5.47;;;4.97;;
6438;SDS011;3252;52.540;13.290;2024-03-06T04:16:47;5.50;;;5.00;;
6438;SDS011;3252;52.540;13.290;2024-03-06T04:18:49;5.07;;;4.60;;
6438;SDS011;3252;52.540;13.290;2024-03-06T04:20:52;5.40;;;4.90;;
6438;SDS011;3252;52.540;13.290;2024-03-06T04:22:54;5.07;;;4.60;;
6438;SDS011;3252;52.540;13.290;2024-03-06T04:24:57;4.87;;;4.47;;
6438;SDS011;3252;52.540;13.290;2024-03-06T04:26:59;5.20;;;4.70;;
6438;SDS011;3252;52.540;13.290;2024-03-06T04:29:02;5.03;;;4.53;;
6438;SDS011;3252;52.540;13.290;2024-03-06T04:31:04;4.67;;;4.27;;
6438;SDS011;3252;52.540;13.290;2024-03-06T04:33:08;5.40;;;4.90;;
6438;SDS011;3252;52.540;13.290;2024-03-06T04:35:09;4.80;;;4.30;;
6438;SDS011;3252;52.540;13.290;2024-03-06T04:37:12;4.97;;;4.43;;
6438;SDS011;3252;52.540;13.290;2024-03-06T04:39:14;5.27;;;4.73;;
6438;SDS011;3252;52.540;13.290;2024-03-06T04:41:18;5.10;;;4.60;;
6438;SDS011;3252;52.540;13.290;2024-03-06T04:43:20;4.60;;;4.20;;
6438;SDS011;3252;52.540;13.290;2024-03-06T04:45:23;4.93;;;4.50;;
6438;SDS011;3252;52.540;13.290;2024-03-06T04:47:25;4.70;;;4.30;;
6438;SDS011;3252;52.540;13.290;2024-03-06T04:49:29;4.80;;;4.40;;
6438;SDS011;3252;52.540;13.290;2024-03-06T04:51:34;4.77;;;4.33;;
6438;SDS011;3252;52.540;13.290;2024-03-06T04:53:37;4.67;;;4.27;;
6438;SDS011;3252;52.540;13.290;2024-03-06T04:55:39;5.33;;;4.83;;
6438;SDS011;3252;52.540;13.290;2024-03-06T04:57:42;4.73;;;4.33;;
6438;SDS011;3252;52.540;13.290;2024-03-06T04:59:45;5.40;;;4.90;;
6438;SDS011;3252;52.540;13.290;2024-03-06T05:01:47;4.70;;;4.27;;
6438;SDS011;3252;52.540;13.290;2024-03-06T05:03:50;4.97;;;4.57;;
6438;SDS011;3252;52.540;13.290;2024-03-06T05:05:54;4.90;;;4.50;;
6438;SDS011;3252;52.540;13.290;2024-03-06T05:07:56;5.03;;;4.53;;
6438;SDS011;3252;52.540;13.290;2024-03-06T05:09:59;4.97;;;4.47;;
6438;SDS011;3252;52.540;13.290;2024-03-06T05:12:02;5.07;;;3.93;;
6438;SDS011;3252;52.540;13.290;2024-03-06T05:14:05;4.90;;;4.40;;
6438;SDS011;3252;52.540;13.290;2024-03-06T05:16:07;5.13;;;4.60;;
6438;SDS011;3252;52.540;13.290;2024-03-06T05:18:10;4.47;;;4.07;;
6438;SDS011;3252;52.540;13.290;2024-03-06T05:20:12;4.90;;;4.40;;
6438;SDS011;3252;52.540;13.290;2024-03-06T05:22:18;4.70;;;4.23;;
6438;SDS011;3252;52.540;13.290;2024-03-06T05:24:19;5.20;;;4.70;;
6438;SDS011;3252;52.540;13.290;2024-03-06T05:26:22;4.30;;;3.90;;
6438;SDS011;3252;52.540;13.290;2024-03-06T05:28:24;5.00;;;4.50;;
6438;SDS011;3252;52.540;13.290;2024-03-06T05:30:27;5.27;;;4.77;;
6438;SDS011;3252;52.540;13.290;2024-03-06T05:32:29;5.00;;;4.50;;
6438;SDS011;3252;52.540;13.290;2024-03-06T05:34:32;4.53;;;4.13;;
6438;SDS011;3252;52.540;13.290;2024-03-06T05:36:35;4.67;;;4.17;;
6438;SDS011;3252;52.540;13.290;2024-03-06T05:38:39;5.20;;;4.30;;
6438;SDS011;3252;52.540;13.290;2024-03-06T05:40:41;4.50;;;4.10;;
6438;SDS011;3252;52.540;13.290;2024-03-06T05:42:45;4.87;;;4.37;;
6438;SDS011;3252;52.540;13.290;2024-03-06T05:44:48;6.00;;;4.63;;
6438;SDS011;3252;52.540;13.290;2024-03-06T05:46:50;6.57;;;4.87;;
6438;SDS011;3252;52.540;13.290;2024-03-06T05:48:52;7.07;;;5.17;;
6438;SDS011;3252;52.540;13.290;2024-03-06T05:50:54;9.03;;;5.57;;
6438;SDS011;3252;52.540;13.290;2024-03-06T05:52:57;13.23;;;6.10;;
6438;SDS011;3252;52.540;13.290;2024-03-06T05:55:01;9.67;;;5.93;;
6438;SDS011;3252;52.540;13.290;2024-03-06T05:57:06;10.97;;;6.23;;
6438;SDS011;3252;52.540;13.290;2024-03-06T05:59:09;14.60;;;6.97;;
6438;SDS011;3252;52.540;13.290;2024-03-06T06:01:11;14.07;;;7.20;;
6438;SDS011;3252;52.540;13.290;2024-03-06T06:03:14;16.37;;;8.33;;
6438;SDS011;3252;52.540;13.290;2024-03-06T06:05:16;17.47;;;7.10;;
6438;SDS011;3252;52.540;13.290;2024-03-06T06:07:20;15.40;;;7.97;;
6438;SDS011;3252;52.540;13.290;2024-03-06T06:09:22;15.60;;;8.37;;
6438;SDS011;3252;52.540;13.290;2024-03-06T06:11:26;16.47;;;8.13;;
6438;SDS011;3252;52.540;13.290;2024-03-06T06:13:28;18.63;;;8.10;;
6438;SDS011;3252;52.540;13.290;2024-03-06T06:15:31;17.27;;;8.13;;
6438;SDS011;3252;52.540;13.290;2024-03-06T06:17:34;18.83;;;8.57;;
6438;SDS011;3252;52.540;13.290;2024-03-06T06:19:37;15.17;;;8.03;;
6438;SDS011;3252;52.540;13.290;2024-03-06T06:21:40;18.17;;;7.63;;
6438;SDS011;3252;52.540;13.290;2024-03-06T06:23:41;16.97;;;8.70;;
6438;SDS011;3252;52.540;13.290;2024-03-06T06:25:44;15.10;;;8.53;;
6438;SDS011;3252;52.540;13.290;2024-03-06T06:27:48;13.93;;;7.73;;
6438;SDS011;3252;52.540;13.290;2024-03-06T06:29:50;16.00;;;8.10;;
6438;SDS011;3252;52.540;13.290;2024-03-06T06:31:55;15.33;;;7.87;;
6438;SDS011;3252;52.540;13.290;2024-03-06T06:33:58;16.77;;;8.07;;
6438;SDS011;3252;52.540;13.290;2024-03-06T06:36:01;16.07;;;7.63;;
6438;SDS011;3252;52.540;13.290;2024-03-06T06:38:04;18.83;;;7.70;;
6438;SDS011;3252;52.540;13.290;2024-03-06T06:40:06;14.77;;;7.27;;
6438;SDS011;3252;52.540;13.290;2024-03-06T06:42:08;17.03;;;8.03;;
6438;SDS011;3252;52.540;13.290;2024-03-06T06:44:13;12.83;;;7.13;;
6438;SDS011;3252;52.540;13.290;2024-03-06T06:46:15;15.23;;;7.53;;
6438;SDS011;3252;52.540;13.290;2024-03-06T06:48:18;13.27;;;6.73;;
6438;SDS011;3252;52.540;13.290;2024-03-06T06:50:21;16.23;;;7.80;;
6438;SDS011;3252;52.540;13.290;2024-03-06T06:52:26;12.20;;;6.63;;
6438;SDS011;3252;52.540;13.290;2024-03-06T06:54:29;13.10;;;7.17;;
6438;SDS011;3252;52.540;13.290;2024-03-06T06:56:31;13.03;;;7.10;;
6438;SDS011;3252;52.540;13.290;2024-03-06T06:58:34;15.27;;;6.70;;
6438;SDS011;3252;52.540;13.290;2024-03-06T07:00:37;11.37;;;6.90;;
6438;SDS011;3252;52.540;13.290;2024-03-06T07:02:42;13.00;;;6.73;;
6438;SDS011;3252;52.540;13.290;2024-03-06T07:04:44;12.30;;;6.70;;
6438;SDS011;3252;52.540;13.290;2024-03-06T07:06:46;14.83;;;7.03;;
6438;SDS011;3252;52.540;13.290;2024-03-06T07:08:49;13.83;;;7.30;;
6438;SDS011;3252;52.540;13.290;2024-03-06T07:10:51;15.77;;;6.87;;
6438;SDS011;3252;52.540;13.290;2024-03-06T07:12:55;16.53;;;7.93;;
6438;SDS011;3252;52.540;13.290;2024-03-06T07:14:58;16.30;;;7.20;;
6438;SDS011;3252;52.540;13.290;2024-03-06T07:17:01;15.87;;;8.10;;
6438;SDS011;3252;52.540;13.290;2024-03-06T07:19:04;13.33;;;7.00;;
6438;SDS011;3252;52.540;13.290;2024-03-06T07:21:06;17.80;;;7.80;;
6438;SDS011;3252;52.540;13.290;2024-03-06T07:23:08;17.23;;;7.40;;
6438;SDS011;3252;52.540;13.290;2024-03-06T07:25:11;16.87;;;7.47;;
6438;SDS011;3252;52.540;13.290;2024-03-06T07:27:13;16.57;;;7.53;;
6438;SDS011;3252;52.540;13.290;2024-03-06T07:29:15;15.53;;;7.53;;
6438;SDS011;3252;52.540;13.290;2024-03-06T07:31:18;15.00;;;7.40;;
6438;SDS011;3252;52.540;13.290;2024-03-06T07:33:21;15.57;;;7.50;;
6438;SDS011;3252;52.540;13.290;2024-03-06T07:35:24;15.97;;;7.27;;
6438;SDS011;3252;52.540;13.290;2024-03-06T07:37:25;16.13;;;7.23;;
6438;SDS011;3252;52.540;13.290;2024-03-06T07:39:28;12.40;;;6.80;;
6438;SDS011;3252;52.540;13.290;2024-03-06T07:41:31;18.20;;;7.10;;
6438;SDS011;3252;52.540;13.290;2024-03-06T07:43:34;14.33;;;6.87;;
6438;SDS011;3252;52.540;13.290;2024-03-06T07:45:36;15.00;;;7.13;;
6438;SDS011;3252;52.540;13.290;2024-03-06T07:47:40;12.47;;;6.57;;
6438;SDS011;3252;52.540;13.290;2024-03-06T07:49:44;13.67;;;6.83;;
6438;SDS011;3252;52.540;13.290;2024-03-06T07:51:45;16.37;;;7.20;;
6438;SDS011;3252;52.540;13.290;2024-03-06T07:53:48;12.40;;;6.73;;
6438;SDS011;3252;52.540;13.290;2024-03-06T07:55:50;17.33;;;7.37;;
6438;SDS011;3252;52.540;13.290;2024-03-06T07:57:53;13.53;;;7.20;;
6438;SDS011;3252;52.540;13.290;2024-03-06T07:59:55;11.43;;;6.53;;
6438;SDS011;3252;52.540;13.290;2024-03-06T08:01:58;13.87;;;6.63;;
6438;SDS011;3252;52.540;13.290;2024-03-06T08:04:01;12.37;;;6.87;;
6438;SDS011;3252;52.540;13.290;2024-03-06T08:06:05;11.97;;;6.77;;
6438;SDS011;3252;52.540;13.290;2024-03-06T08:08:07;14.80;;;7.10;;
6438;SDS011;3252;52.540;13.290;2024-03-06T08:10:10;11.50;;;6.67;;
6438;SDS011;3252;52.540;13.290;2024-03-06T08:12:13;15.73;;;6.27;;
6438;SDS011;3252;52.540;13.290;2024-03-06T08:14:16;11.43;;;6.20;;
6438;SDS011;3252;52.540;13.290;2024-03-06T08:16:18;10.40;;;6.10;;
6438;SDS011;3252;52.540;13.290;2024-03-06T08:18:21;22.07;;;15.50;;
6438;SDS011;3252;52.540;13.290;2024-03-06T08:20:22;1999.90;;;999.90;;
6438;SDS011;3252;52.540;13.290;2024-03-06T08:22:26;665.70;;;525.30;;
6438;SDS011;3252;52.540;13.290;2024-03-06T08:24:28;1405.13;;;915.07;;
6438;SDS011;3252;52.540;13.290;2024-03-06T08:26:30;1250.03;;;840.00;;
6438;SDS011;3252;52.540;13.290;2024-03-06T08:28:33;1132.83;;;769.23;;
6438;SDS011;3252;52.540;13.290;2024-03-06T08:30:36;1268.97;;;838.13;;
6438;SDS011;3252;52.540;13.290;2024-03-06T08:32:40;1999.90;;;996.40;;
6438;SDS011;3252;52.540;13.290;2024-03-06T08:34:44;1235.60;;;800.33;;
6438;SDS011;3252;52.540;13.290;2024-03-06T08:36:47;1169.80;;;758.80;;
6438;SDS011;3252;52.540;13.290;2024-03-06T08:38:51;1025.57;;;663.73;;
6438;SDS011;3252;52.540;13.290;2024-03-06T08:40:53;915.27;;;585.57;;
6438;SDS011;3252;52.540;13.290;2024-03-06T08:42:55;845.03;;;524.33;;
6438;SDS011;3252;52.540;13.290;2024-03-06T08:44:57;729.03;;;420.50;;
6438;SDS011;3252;52.540;13.290;2024-03-06T08:46:59;598.13;;;322.33;;
6438;SDS011;3252;52.540;13.290;2024-03-06T08:49:02;484.97;;;226.30;;
6438;SDS011;3252;52.540;13.290;2024-03-06T08:51:04;558.57;;;336.53;;
6438;SDS011;3252;52.540;13.290;2024-03-06T08:53:11;910.03;;;647.40;;
6438;SDS011;3252;52.540;13.290;2024-03-06T08:55:15;1072.37;;;749.97;;
6438;SDS011;3252;52.540;13.290;2024-03-06T08:57:17;1246.20;;;825.37;;
6438;SDS011;3252;52.540;13.290;2024-03-06T08:59:21;1445.33;;;911.83;;
6438;SDS011;3252;52.540;13.290;2024-03-06T09:01:24;1433.23;;;897.83;;
6438;SDS011;3252;52.540;13.290;2024-03-06T09:03:26;1711.13;;;997.00;;
6438;SDS011;3252;52.540;13.290;2024-03-06T09:05:29;1967.40;;;999.90;;
6438;SDS011;3252;52.540;13.290;2024-03-06T09:07:32;1959.20;;;999.90;;
6438;SDS011;3252;52.540;13.290;2024-03-06T09:09:37;1667.40;;;951.43;;
6438;SDS011;3252;52.540;13.290;2024-03-06T09:11:41;1581.23;;;912.27;;
6438;SDS011;3252;52.540;13.290;2024-03-06T09:13:44;1414.97;;;833.03;;
6438;SDS011;3252;52.540;13.290;2024-03-06T09:15:46;1226.33;;;747.73;;
6438;SDS011;3252;52.540;13.290;2024-03-06T09:17:49;1156.63;;;698.80;;
6438;SDS011;3252;52.540;13.290;2024-03-06T09:19:51;1073.83;;;642.80;;
6438;SDS011;3252;52.540;13.290;2024-03-06T09:21:54;931.70;;;555.80;;
6438;SDS011;3252;52.540;13.290;2024-03-06T09:23:56;775.20;;;441.97;;
6438;SDS011;3252;52.540;13.290;2024-03-06T09:25:59;611.60;;;316.33;;
6438;SDS011;3252;52.540;13.290;2024-03-06T09:28:03;529.03;;;256.43;;
6438;SDS011;3252;52.540;13.290;2024-03-06T09:30:06;344.67;;;142.10;;
6438;SDS011;3252;52.540;13.290;2024-03-06T09:32:10;260.07;;;104.57;;
6438;SDS011;3252;52.540;13.290;2024-03-06T09:34:15;140.23;;;57.10;;
6438;SDS011;3252;52.540;13.290;2024-03-06T09:36:17;84.00;;;39.50;;
6438;SDS011;3252;52.540;13.290;2024-03-06T09:38:19;42.73;;;23.23;;
6438;SDS011;3252;52.540;13.290;2024-03-06T09:40:21;29.07;;;18.00;;
6438;SDS011;3252;52.540;13.290;2024-03-06T09:42:24;19.90;;;14.77;;
6438;SDS011;3252;52.540;13.290;2024-03-06T09:44:28;17.23;;;14.07;;
6438;SDS011;3252;52.540;13.290;2024-03-06T09:46:31;17.50;;;13.53;;
6438;SDS011;3252;52.540;13.290;2024-03-06T09:48:34;15.70;;;13.00;;
6438;SDS011;3252;52.540;13.290;2024-03-06T09:50:38;16.07;;;11.80;;
6438;SDS011;3252;52.540;13.290;2024-03-06T09:52:46;15.57;;;11.90;;
6438;SDS011;3252;52.540;13.290;2024-03-06T09:54:50;19.03;;;12.40;;
6438;SDS011;3252;52.540;13.290;2024-03-06T09:56:52;14.03;;;11.57;;
6438;SDS011;3252;52.540;13.290;2024-03-06T09:58:56;15.27;;;12.03;;
6438;SDS011;3252;52.540;13.290;2024-03-06T10:01:00;15.53;;;11.40;;
6438;SDS011;3252;52.540;13.290;2024-03-06T10:03:04;54.27;;;40.73;;
6438;SDS011;3252;52.540;13.290;2024-03-06T10:05:20;418.97;;;300.33;;
6438;SDS011;3252;52.540;13.290;2024-03-06T10:07:22;678.73;;;511.03;;
6438;SDS011;3252;52.540;13.290;2024-03-06T10:09:28;616.67;;;433.37;;
6438;SDS011;3252;52.540;13.290;2024-03-06T10:11:32;548.53;;;354.73;;
6438;SDS011;3252;52.540;13.290;2024-03-06T10:13:40;443.57;;;247.97;;
6438;SDS011;3252;52.540;13.290;2024-03-06T10:15:42;300.10;;;147.70;;
6438;SDS011;3252;52.540;13.290;2024-03-06T10:17:46;204.17;;;95.67;;
6438;SDS011;3252;52.540;13.290;2024-03-06T10:19:49;108.90;;;51.80;;
6438;SDS011;3252;52.540;13.290;2024-03-06T10:21:51;52.77;;;29.13;;
6438;SDS011;3252;52.540;13.290;2024-03-06T10:23:57;34.57;;;21.40;;
6438;SDS011;3252;52.540;13.290;2024-03-06T10:25:59;23.17;;;16.43;;
6438;SDS011;3252;52.540;13.290;2024-03-06T10:28:02;16.17;;;13.07;;
6438;SDS011;3252;52.540;13.290;2024-03-06T10:30:04;14.17;;;12.47;;
6438;SDS011;3252;52.540;13.290;2024-03-06T10:32:15;12.93;;;11.40;;
6438;SDS011;3252;52.540;13.290;2024-03-06T10:34:21;11.77;;;10.40;;
6438;SDS011;3252;52.540;13.290;2024-03-06T10:36:25;12.90;;;10.23;;
6438;SDS011;3252;52.540;13.290;2024-03-06T10:38:27;12.07;;;10.27;;
6438;SDS011;3252;52.540;13.290;2024-03-06T10:40:33;11.70;;;10.50;;
6438;SDS011;3252;52.540;13.290;2024-03-06T10:42:36;11.37;;;10.23;;
6438;SDS011;3252;52.540;13.290;2024-03-06T10:44:38;12.23;;;9.97;;
6438;SDS011;3252;52.540;13.290;2024-03-06T10:46:44;12.27;;;9.60;;
6438;SDS011;3252;52.540;13.290;2024-03-06T10:48:48;54.63;;;42.20;;
6438;SDS011;3252;52.540;13.290;2024-03-06T10:50:53;506.10;;;355.80;;
6438;SDS011;3252;52.540;13.290;2024-03-06T10:52:57;310.37;;;208.50;;
6438;SDS011;3252;52.540;13.290;2024-03-06T10:54:59;129.07;;;86.97;;
6438;SDS011;3252;52.540;13.290;2024-03-06T10:57:03;127.10;;;87.43;;
6438;SDS011;3252;52.540;13.290;2024-03-06T10:59:06;527.67;;;393.23;;
6438;SDS011;3252;52.540;13.290;2024-03-06T11:01:08;952.43;;;700.83;;
6438;SDS011;3252;52.540;13.290;2024-03-06T11:03:13;1149.60;;;796.07;;
6438;SDS011;3252;52.540;13.290;2024-03-06T11:05:15;1087.10;;;742.03;;
6438;SDS011;3252;52.540;13.290;2024-03-06T11:07:19;991.00;;;667.30;;
6438;SDS011;3252;52.540;13.290;2024-03-06T11:09:22;820.07;;;534.80;;
6438;SDS011;3252;52.540;13.290;2024-03-06T11:11:25;735.83;;;450.53;;
6438;SDS011;3252;52.540;13.290;2024-03-06T11:13:27;560.23;;;315.47;;
6438;SDS011;3252;52.540;13.290;2024-03-06T11:15:34;457.17;;;224.07;;
6438;SDS011;3252;52.540;13.290;2024-03-06T11:17:37;314.07;;;140.10;;
6438;SDS011;3252;52.540;13.290;2024-03-06T11:22:02;132.73;;;63.53;;
6438;SDS011;3252;52.540;13.290;2024-03-06T11:24:14;62.97;;;36.97;;
6438;SDS011;3252;52.540;13.290;2024-03-06T11:26:16;39.57;;;27.03;;
6438;SDS011;3252;52.540;13.290;2024-03-06T11:28:20;26.10;;;20.13;;
6438;SDS011;3252;52.540;13.290;2024-03-06T11:30:22;20.90;;;17.37;;
6438;SDS011;3252;52.540;13.290;2024-03-06T11:32:25;18.50;;;14.77;;
6438;SDS011;3252;52.540;13.290;2024-03-06T11:34:28;14.97;;;13.37;;
6438;SDS011;3252;52.540;13.290;2024-03-06T11:36:31;15.10;;;12.27;;
6438;SDS011;3252;52.540;13.290;2024-03-06T11:38:37;14.57;;;11.83;;
6438;SDS011;3252;52.540;13.290;2024-03-06T11:40:44;15.23;;;12.13;;
6438;SDS011;3252;52.540;13.290;2024-03-06T11:42:46;11.50;;;10.30;;
6438;SDS011;3252;52.540;13.290;2024-03-06T11:44:53;12.77;;;10.53;;
6438;SDS011;3252;52.540;13.290;2024-03-06T11:47:01;10.80;;;9.70;;
6438;SDS011;3252;52.540;13.290;2024-03-06T11:49:03;11.07;;;9.17;;
6438;SDS011;3252;52.540;13.290;2024-03-06T11:51:05;10.80;;;9.20;;
6438;SDS011;3252;52.540;13.290;2024-03-06T11:53:08;10.07;;;8.97;;
6438;SDS011;3252;52.540;13.290;2024-03-06T11:55:11;10.33;;;9.10;;
6438;SDS011;3252;52.540;13.290;2024-03-06T11:57:15;9.73;;;8.73;;
6438;SDS011;3252;52.540;13.290;2024-03-06T11:59:21;9.17;;;8.13;;
6438;SDS011;3252;52.540;13.290;2024-03-06T12:01:23;350.73;;;227.53;;
6438;SDS011;3252;52.540;13.290;2024-03-06T12:03:26;582.60;;;444.30;;
6438;SDS011;3252;52.540;13.290;2024-03-06T12:05:29;765.00;;;597.97;;
6438;SDS011;3252;52.540;13.290;2024-03-06T12:07:31;574.67;;;423.07;;
6438;SDS011;3252;52.540;13.290;2024-03-06T12:09:34;407.33;;;264.23;;
6438;SDS011;3252;52.540;13.290;2024-03-06T12:11:43;419.43;;;264.67;;
6438;SDS011;3252;52.540;13.290;2024-03-06T12:13:47;373.67;;;214.77;;
6438;SDS011;3252;52.540;13.290;2024-03-06T12:15:50;270.07;;;144.33;;
6438;SDS011;3252;52.540;13.290;2024-03-06T12:17:53;97.37;;;49.20;;
6438;SDS011;3252;52.540;13.290;2024-03-06T12:19:56;64.37;;;37.07;;
6438;SDS011;3252;52.540;13.290;2024-03-06T12:21:59;35.50;;;19.77;;